sensor_id;sensor_type;location;lat;lon;timestamp;temperature;humidity
20284;DHT22;10301;50.832;4.080;2023-06-01T00:00:35;15.70;51.20
20284;DHT22;10301;50.832;4.080;2023-06-01T00:03:03;15.50;57.30
20284;DHT22;10301;50.832;4.080;2023-06-01T00:05:29;15.30;62.80
20284;DHT22;10301;50.832;4.080;2023-06-01T00:07:55;15.40;66.60
20284;DHT22;10301;50.832;4.080;2023-06-01T00:10:21;15.40;61.10
20284;DHT22;10301;50.832;4.080;2023-06-01T00:12:46;15.40;60.60
20284;DHT22;10301;50.832;4.080;2023-06-01T00:15:12;15.30;65.80
20284;DHT22;10301;50.832;4.080;2023-06-01T00:17:38;15.20;68.00
20284;DHT22;10301;50.832;4.080;2023-06-01T00:20:04;15.10;77.20
20284;DHT22;10301;50.832;4.080;2023-06-01T00:22:34;15.20;77.20
20284;DHT22;10301;50.832;4.080;2023-06-01T00:25:07;15.20;65.40
20284;DHT22;10301;50.832;4.080;2023-06-01T00:27:33;15.10;69.10
20284;DHT22;10301;50.832;4.080;2023-06-01T00:29:59;15.20;73.70
20284;DHT22;10301;50.832;4.080;2023-06-01T00:32:24;15.20;67.10
20284;DHT22;10301;50.832;4.080;2023-06-01T00:34:50;15.10;72.30
20284;DHT22;10301;50.832;4.080;2023-06-01T00:37:15;15.30;59.60
20284;DHT22;10301;50.832;4.080;2023-06-01T00:39:41;15.30;57.80
20284;DHT22;10301;50.832;4.080;2023-06-01T00:42:07;15.10;66.10
20284;DHT22;10301;50.832;4.080;2023-06-01T00:44:33;14.90;77.50
20284;DHT22;10301;50.832;4.080;2023-06-01T00:46:59;14.80;83.80
20284;DHT22;10301;50.832;4.080;2023-06-01T00:49:25;14.70;87.30
20284;DHT22;10301;50.832;4.080;2023-06-01T00:51:51;14.60;90.10
20284;DHT22;10301;50.832;4.080;2023-06-01T00:54:18;14.50;91.50
20284;DHT22;10301;50.832;4.080;2023-06-01T00:56:44;14.40;92.90
20284;DHT22;10301;50.832;4.080;2023-06-01T00:59:10;14.30;93.30
20284;DHT22;10301;50.832;4.080;2023-06-01T01:01:37;14.30;94.40
20284;DHT22;10301;50.832;4.080;2023-06-01T01:04:02;14.30;93.70
20284;DHT22;10301;50.832;4.080;2023-06-01T01:09:12;14.30;92.80
20284;DHT22;10301;50.832;4.080;2023-06-01T01:11:42;14.30;93.50
20284;DHT22;10301;50.832;4.080;2023-06-01T01:14:23;14.20;94.90
20284;DHT22;10301;50.832;4.080;2023-06-01T01:17:06;14.10;95.60
20284;DHT22;10301;50.832;4.080;2023-06-01T01:22:13;14.10;95.60
20284;DHT22;10301;50.832;4.080;2023-06-01T01:27:44;13.90;96.40
20284;DHT22;10301;50.832;4.080;2023-06-01T01:30:15;14.00;96.20
20284;DHT22;10301;50.832;4.080;2023-06-01T01:32:43;13.90;96.20
20284;DHT22;10301;50.832;4.080;2023-06-01T01:35:10;13.90;96.30
20284;DHT22;10301;50.832;4.080;2023-06-01T01:37:36;14.00;95.50
20284;DHT22;10301;50.832;4.080;2023-06-01T01:40:02;13.90;95.50
20284;DHT22;10301;50.832;4.080;2023-06-01T01:42:28;13.90;96.00
20284;DHT22;10301;50.832;4.080;2023-06-01T01:44:54;13.90;95.80
20284;DHT22;10301;50.832;4.080;2023-06-01T01:47:51;13.70;96.80
20284;DHT22;10301;50.832;4.080;2023-06-01T01:50:22;13.60;97.90
20284;DHT22;10301;50.832;4.080;2023-06-01T01:52:51;13.60;98.10
20284;DHT22;10301;50.832;4.080;2023-06-01T01:55:20;13.60;98.20
20284;DHT22;10301;50.832;4.080;2023-06-01T01:57:50;13.60;99.00
20284;DHT22;10301;50.832;4.080;2023-06-01T02:00:17;13.50;98.60
20284;DHT22;10301;50.832;4.080;2023-06-01T02:02:46;13.50;98.90
20284;DHT22;10301;50.832;4.080;2023-06-01T02:05:12;13.60;98.80
20284;DHT22;10301;50.832;4.080;2023-06-01T02:07:38;13.50;98.40
20284;DHT22;10301;50.832;4.080;2023-06-01T02:10:04;13.40;98.60
20284;DHT22;10301;50.832;4.080;2023-06-01T02:12:30;13.50;99.00
20284;DHT22;10301;50.832;4.080;2023-06-01T02:14:55;13.40;98.80
20284;DHT22;10301;50.832;4.080;2023-06-01T02:17:21;13.30;99.40
20284;DHT22;10301;50.832;4.080;2023-06-01T02:19:47;13.30;99.60
20284;DHT22;10301;50.832;4.080;2023-06-01T02:22:13;13.20;99.40
20284;DHT22;10301;50.832;4.080;2023-06-01T02:24:39;13.20;99.90
20284;DHT22;10301;50.832;4.080;2023-06-01T02:27:05;13.20;99.60
20284;DHT22;10301;50.832;4.080;2023-06-01T02:29:31;13.20;99.70
20284;DHT22;10301;50.832;4.080;2023-06-01T02:31:56;13.20;98.80
20284;DHT22;10301;50.832;4.080;2023-06-01T02:34:25;13.30;98.60
20284;DHT22;10301;50.832;4.080;2023-06-01T02:36:51;13.20;98.60
20284;DHT22;10301;50.832;4.080;2023-06-01T02:39:21;13.20;99.20
20284;DHT22;10301;50.832;4.080;2023-06-01T02:41:47;13.10;99.80
20284;DHT22;10301;50.832;4.080;2023-06-01T02:44:13;13.10;99.80
20284;DHT22;10301;50.832;4.080;2023-06-01T02:46:39;13.20;99.20
20284;DHT22;10301;50.832;4.080;2023-06-01T02:49:04;13.20;97.70
20284;DHT22;10301;50.832;4.080;2023-06-01T02:51:30;13.10;98.70
20284;DHT22;10301;50.832;4.080;2023-06-01T02:53:57;13.10;98.90
20284;DHT22;10301;50.832;4.080;2023-06-01T02:56:22;13.00;99.10
20284;DHT22;10301;50.832;4.080;2023-06-01T02:58:48;12.90;99.90
20284;DHT22;10301;50.832;4.080;2023-06-01T03:01:14;12.90;99.90
20284;DHT22;10301;50.832;4.080;2023-06-01T03:03:40;12.90;99.90
20284;DHT22;10301;50.832;4.080;2023-06-01T03:06:07;13.00;99.90
20284;DHT22;10301;50.832;4.080;2023-06-01T03:08:34;13.20;99.00
20284;DHT22;10301;50.832;4.080;2023-06-01T03:10:59;13.40;96.10
20284;DHT22;10301;50.832;4.080;2023-06-01T03:13:25;13.20;96.30
20284;DHT22;10301;50.832;4.080;2023-06-01T03:15:51;13.30;94.60
20284;DHT22;10301;50.832;4.080;2023-06-01T03:18:17;13.20;95.00
20284;DHT22;10301;50.832;4.080;2023-06-01T03:20:42;13.20;96.70
20284;DHT22;10301;50.832;4.080;2023-06-01T03:23:08;13.20;95.20
20284;DHT22;10301;50.832;4.080;2023-06-01T03:25:34;13.10;95.60
20284;DHT22;10301;50.832;4.080;2023-06-01T03:28:00;13.30;93.40
20284;DHT22;10301;50.832;4.080;2023-06-01T03:30:25;13.10;93.90
20284;DHT22;10301;50.832;4.080;2023-06-01T03:32:51;13.10;94.70
20284;DHT22;10301;50.832;4.080;2023-06-01T03:35:17;13.00;95.70
20284;DHT22;10301;50.832;4.080;2023-06-01T03:37:45;13.10;95.80
20284;DHT22;10301;50.832;4.080;2023-06-01T03:40:10;13.20;95.10
20284;DHT22;10301;50.832;4.080;2023-06-01T03:42:47;13.30;92.70
20284;DHT22;10301;50.832;4.080;2023-06-01T03:45:15;13.00;92.60
20284;DHT22;10301;50.832;4.080;2023-06-01T03:47:42;13.00;96.40
20284;DHT22;10301;50.832;4.080;2023-06-01T03:50:09;12.90;96.40
20284;DHT22;10301;50.832;4.080;2023-06-01T03:52:35;12.90;97.00
20284;DHT22;10301;50.832;4.080;2023-06-01T03:55:03;12.90;96.80
20284;DHT22;10301;50.832;4.080;2023-06-01T03:57:34;13.00;95.70
20284;DHT22;10301;50.832;4.080;2023-06-01T04:00:04;12.90;95.10
20284;DHT22;10301;50.832;4.080;2023-06-01T04:02:45;12.80;98.00
20284;DHT22;10301;50.832;4.080;2023-06-01T04:05:11;12.90;97.80
20284;DHT22;10301;50.832;4.080;2023-06-01T04:07:43;12.90;96.20
20284;DHT22;10301;50.832;4.080;2023-06-01T04:10:09;13.00;95.70
20284;DHT22;10301;50.832;4.080;2023-06-01T04:12:36;13.00;95.50
20284;DHT22;10301;50.832;4.080;2023-06-01T04:15:02;12.70;95.70
20284;DHT22;10301;50.832;4.080;2023-06-01T04:17:28;12.70;97.40
20284;DHT22;10301;50.832;4.080;2023-06-01T04:19:53;12.80;97.70
20284;DHT22;10301;50.832;4.080;2023-06-01T04:22:19;13.00;95.40
20284;DHT22;10301;50.832;4.080;2023-06-01T04:24:45;13.10;93.30
20284;DHT22;10301;50.832;4.080;2023-06-01T04:27:11;12.90;93.90
20284;DHT22;10301;50.832;4.080;2023-06-01T04:29:43;13.20;93.90
20284;DHT22;10301;50.832;4.080;2023-06-01T04:32:09;13.30;87.70
20284;DHT22;10301;50.832;4.080;2023-06-01T04:34:38;13.10;89.70
20284;DHT22;10301;50.832;4.080;2023-06-01T04:37:04;13.00;92.10
20284;DHT22;10301;50.832;4.080;2023-06-01T04:39:30;13.00;91.50
20284;DHT22;10301;50.832;4.080;2023-06-01T04:41:56;12.80;93.30
20284;DHT22;10301;50.832;4.080;2023-06-01T04:44:22;12.70;92.80
20284;DHT22;10301;50.832;4.080;2023-06-01T04:46:48;13.00;90.60
20284;DHT22;10301;50.832;4.080;2023-06-01T04:49:16;13.00;89.10
20284;DHT22;10301;50.832;4.080;2023-06-01T04:51:43;13.20;81.90
20284;DHT22;10301;50.832;4.080;2023-06-01T04:54:10;13.30;79.70
20284;DHT22;10301;50.832;4.080;2023-06-01T04:56:35;13.50;67.70
20284;DHT22;10301;50.832;4.080;2023-06-01T04:59:01;13.30;70.40
20284;DHT22;10301;50.832;4.080;2023-06-01T05:01:27;13.50;73.00
20284;DHT22;10301;50.832;4.080;2023-06-01T05:03:55;13.70;66.90
20284;DHT22;10301;50.832;4.080;2023-06-01T05:06:21;13.70;54.90
20284;DHT22;10301;50.832;4.080;2023-06-01T05:08:47;13.80;40.80
20284;DHT22;10301;50.832;4.080;2023-06-01T05:11:14;13.60;46.00
20284;DHT22;10301;50.832;4.080;2023-06-01T05:13:41;13.30;61.00
20284;DHT22;10301;50.832;4.080;2023-06-01T05:16:08;13.20;70.90
20284;DHT22;10301;50.832;4.080;2023-06-01T05:18:34;12.90;79.10
20284;DHT22;10301;50.832;4.080;2023-06-01T05:21:01;13.10;86.00
20284;DHT22;10301;50.832;4.080;2023-06-01T05:23:27;13.40;73.30
20284;DHT22;10301;50.832;4.080;2023-06-01T05:25:53;13.70;56.00
20284;DHT22;10301;50.832;4.080;2023-06-01T05:28:32;14.10;27.40
20284;DHT22;10301;50.832;4.080;2023-06-01T05:30:59;14.10;31.20
20284;DHT22;10301;50.832;4.080;2023-06-01T05:33:25;13.70;45.10
20284;DHT22;10301;50.832;4.080;2023-06-01T05:35:51;13.80;40.10
20284;DHT22;10301;50.832;4.080;2023-06-01T05:38:16;13.40;52.70
20284;DHT22;10301;50.832;4.080;2023-06-01T05:40:42;13.20;65.70
20284;DHT22;10301;50.832;4.080;2023-06-01T05:43:08;13.40;59.30
20284;DHT22;10301;50.832;4.080;2023-06-01T05:45:34;13.50;47.90
20284;DHT22;10301;50.832;4.080;2023-06-01T05:47:59;13.20;60.60
20284;DHT22;10301;50.832;4.080;2023-06-01T05:50:25;12.80;73.10
20284;DHT22;10301;50.832;4.080;2023-06-01T05:52:51;12.70;76.50
20284;DHT22;10301;50.832;4.080;2023-06-01T05:55:17;12.80;82.80
20284;DHT22;10301;50.832;4.080;2023-06-01T05:57:42;13.20;74.20
20284;DHT22;10301;50.832;4.080;2023-06-01T06:00:09;13.80;53.80
20284;DHT22;10301;50.832;4.080;2023-06-01T06:02:42;14.00;30.10
20284;DHT22;10301;50.832;4.080;2023-06-01T06:05:08;13.80;35.80
20284;DHT22;10301;50.832;4.080;2023-06-01T06:07:35;13.80;41.10
20284;DHT22;10301;50.832;4.080;2023-06-01T06:10:01;13.90;39.00
20284;DHT22;10301;50.832;4.080;2023-06-01T06:12:27;13.90;32.00
20284;DHT22;10301;50.832;4.080;2023-06-01T06:14:53;13.70;31.40
20284;DHT22;10301;50.832;4.080;2023-06-01T06:17:19;13.70;31.70
20284;DHT22;10301;50.832;4.080;2023-06-01T06:19:45;13.60;38.20
20284;DHT22;10301;50.832;4.080;2023-06-01T06:22:13;13.80;46.40
20284;DHT22;10301;50.832;4.080;2023-06-01T06:24:39;14.00;36.40
20284;DHT22;10301;50.832;4.080;2023-06-01T06:27:05;14.20;29.40
20284;DHT22;10301;50.832;4.080;2023-06-01T06:29:31;14.60;6.50
20284;DHT22;10301;50.832;4.080;2023-06-01T06:31:57;15.00;1.00
20284;DHT22;10301;50.832;4.080;2023-06-01T06:34:23;15.30;1.00
20284;DHT22;10301;50.832;4.080;2023-06-01T06:36:48;15.30;1.00
20284;DHT22;10301;50.832;4.080;2023-06-01T06:39:14;15.00;1.00
20284;DHT22;10301;50.832;4.080;2023-06-01T06:41:41;15.30;1.00
20284;DHT22;10301;50.832;4.080;2023-06-01T06:44:07;15.30;1.00
20284;DHT22;10301;50.832;4.080;2023-06-01T06:46:33;15.40;1.00
20284;DHT22;10301;50.832;4.080;2023-06-01T06:48:59;14.90;1.00
20284;DHT22;10301;50.832;4.080;2023-06-01T06:51:25;14.40;1.00
20284;DHT22;10301;50.832;4.080;2023-06-01T06:53:51;14.50;1.00
20284;DHT22;10301;50.832;4.080;2023-06-01T06:56:17;14.60;1.00
20284;DHT22;10301;50.832;4.080;2023-06-01T06:58:43;14.90;1.00
20284;DHT22;10301;50.832;4.080;2023-06-01T07:01:09;15.10;1.00
20284;DHT22;10301;50.832;4.080;2023-06-01T07:03:35;15.00;1.00
20284;DHT22;10301;50.832;4.080;2023-06-01T07:06:02;15.10;1.00
20284;DHT22;10301;50.832;4.080;2023-06-01T07:08:28;15.40;1.00
20284;DHT22;10301;50.832;4.080;2023-06-01T07:10:54;14.70;1.00
20284;DHT22;10301;50.832;4.080;2023-06-01T07:13:22;15.00;1.00
20284;DHT22;10301;50.832;4.080;2023-06-01T07:15:47;15.30;1.00
20284;DHT22;10301;50.832;4.080;2023-06-01T07:18:13;15.60;1.00
20284;DHT22;10301;50.832;4.080;2023-06-01T07:20:38;16.10;1.00
20284;DHT22;10301;50.832;4.080;2023-06-01T07:23:04;15.80;1.00
20284;DHT22;10301;50.832;4.080;2023-06-01T07:25:30;16.50;1.00
20284;DHT22;10301;50.832;4.080;2023-06-01T07:27:55;17.20;1.00
20284;DHT22;10301;50.832;4.080;2023-06-01T07:30:22;17.50;1.00
20284;DHT22;10301;50.832;4.080;2023-06-01T07:32:47;17.60;1.00
20284;DHT22;10301;50.832;4.080;2023-06-01T07:35:13;17.70;1.00
20284;DHT22;10301;50.832;4.080;2023-06-01T07:37:40;18.20;99.90
20284;DHT22;10301;50.832;4.080;2023-06-01T07:40:06;18.30;1.00
20284;DHT22;10301;50.832;4.080;2023-06-01T07:42:33;18.00;99.90
20284;DHT22;10301;50.832;4.080;2023-06-01T07:45:00;17.80;1.00
20284;DHT22;10301;50.832;4.080;2023-06-01T07:47:25;17.90;1.00
20284;DHT22;10301;50.832;4.080;2023-06-01T07:49:51;18.30;99.90
20284;DHT22;10301;50.832;4.080;2023-06-01T07:52:17;18.20;99.90
20284;DHT22;10301;50.832;4.080;2023-06-01T07:54:43;17.50;1.00
20284;DHT22;10301;50.832;4.080;2023-06-01T07:57:08;17.80;99.90
20284;DHT22;10301;50.832;4.080;2023-06-01T07:59:34;17.50;1.00
20284;DHT22;10301;50.832;4.080;2023-06-01T08:02:00;17.90;99.90
20284;DHT22;10301;50.832;4.080;2023-06-01T08:04:26;16.90;1.00
20284;DHT22;10301;50.832;4.080;2023-06-01T08:06:52;16.90;1.00
20284;DHT22;10301;50.832;4.080;2023-06-01T08:09:19;16.80;1.00
20284;DHT22;10301;50.832;4.080;2023-06-01T08:11:47;16.50;1.00
20284;DHT22;10301;50.832;4.080;2023-06-01T08:14:13;16.20;1.00
20284;DHT22;10301;50.832;4.080;2023-06-01T08:16:38;16.20;1.00
20284;DHT22;10301;50.832;4.080;2023-06-01T08:19:04;16.60;1.00
20284;DHT22;10301;50.832;4.080;2023-06-01T08:21:30;17.00;1.00
20284;DHT22;10301;50.832;4.080;2023-06-01T08:23:57;17.50;1.00
20284;DHT22;10301;50.832;4.080;2023-06-01T08:26:28;17.60;1.00
20284;DHT22;10301;50.832;4.080;2023-06-01T08:28:53;16.80;1.00
20284;DHT22;10301;50.832;4.080;2023-06-01T08:31:24;16.50;1.00
20284;DHT22;10301;50.832;4.080;2023-06-01T08:33:50;16.70;1.00
20284;DHT22;10301;50.832;4.080;2023-06-01T08:36:17;16.70;1.00
20284;DHT22;10301;50.832;4.080;2023-06-01T08:38:43;16.50;1.00
20284;DHT22;10301;50.832;4.080;2023-06-01T08:41:40;17.10;1.00
20284;DHT22;10301;50.832;4.080;2023-06-01T08:44:08;17.60;1.00
20284;DHT22;10301;50.832;4.080;2023-06-01T08:46:35;17.00;1.00
20284;DHT22;10301;50.832;4.080;2023-06-01T08:49:01;16.90;1.00
20284;DHT22;10301;50.832;4.080;2023-06-01T08:51:28;16.70;1.00
20284;DHT22;10301;50.832;4.080;2023-06-01T08:53:57;16.40;1.00
20284;DHT22;10301;50.832;4.080;2023-06-01T08:56:22;16.30;1.00
20284;DHT22;10301;50.832;4.080;2023-06-01T08:58:49;16.90;1.00
20284;DHT22;10301;50.832;4.080;2023-06-01T09:01:19;16.70;1.00
20284;DHT22;10301;50.832;4.080;2023-06-01T09:03:47;16.30;1.00
20284;DHT22;10301;50.832;4.080;2023-06-01T09:06:14;16.20;1.00
20284;DHT22;10301;50.832;4.080;2023-06-01T09:08:39;16.50;1.00
20284;DHT22;10301;50.832;4.080;2023-06-01T09:11:05;16.70;1.00
20284;DHT22;10301;50.832;4.080;2023-06-01T09:13:32;16.70;1.00
20284;DHT22;10301;50.832;4.080;2023-06-01T09:15:58;16.80;1.00
20284;DHT22;10301;50.832;4.080;2023-06-01T09:18:24;16.80;1.00
20284;DHT22;10301;50.832;4.080;2023-06-01T09:20:49;16.70;1.00
20284;DHT22;10301;50.832;4.080;2023-06-01T09:23:26;16.80;1.00
20284;DHT22;10301;50.832;4.080;2023-06-01T09:26:05;16.70;1.00
20284;DHT22;10301;50.832;4.080;2023-06-01T09:31:46;17.20;1.00
20284;DHT22;10301;50.832;4.080;2023-06-01T09:34:14;17.40;1.00
20284;DHT22;10301;50.832;4.080;2023-06-01T09:36:48;17.30;1.00
20284;DHT22;10301;50.832;4.080;2023-06-01T09:39:17;16.90;1.00
20284;DHT22;10301;50.832;4.080;2023-06-01T09:41:53;16.90;1.00
20284;DHT22;10301;50.832;4.080;2023-06-01T09:44:39;17.10;1.00
20284;DHT22;10301;50.832;4.080;2023-06-01T09:47:10;17.60;1.00
20284;DHT22;10301;50.832;4.080;2023-06-01T09:49:42;17.50;1.00
20284;DHT22;10301;50.832;4.080;2023-06-01T09:52:14;17.80;1.00
20284;DHT22;10301;50.832;4.080;2023-06-01T09:57:12;18.20;99.90
20284;DHT22;10301;50.832;4.080;2023-06-01T09:59:43;17.70;99.90
20284;DHT22;10301;50.832;4.080;2023-06-01T10:02:14;17.80;99.90
20284;DHT22;10301;50.832;4.080;2023-06-01T10:04:44;17.70;99.90
20284;DHT22;10301;50.832;4.080;2023-06-01T10:07:13;17.60;1.00
20284;DHT22;10301;50.832;4.080;2023-06-01T10:09:41;17.70;62.30
20284;DHT22;10301;50.832;4.080;2023-06-01T10:12:08;17.90;1.00
20284;DHT22;10301;50.832;4.080;2023-06-01T10:14:37;17.80;1.00
20284;DHT22;10301;50.832;4.080;2023-06-01T10:17:07;18.00;1.00
20284;DHT22;10301;50.832;4.080;2023-06-01T10:19:36;18.10;99.90
20284;DHT22;10301;50.832;4.080;2023-06-01T10:22:03;18.30;1.00
20284;DHT22;10301;50.832;4.080;2023-06-01T10:24:29;18.70;1.00
20284;DHT22;10301;50.832;4.080;2023-06-01T10:29:36;19.00;1.00
20284;DHT22;10301;50.832;4.080;2023-06-01T10:32:02;18.70;1.00
20284;DHT22;10301;50.832;4.080;2023-06-01T10:34:42;18.50;1.00
20284;DHT22;10301;50.832;4.080;2023-06-01T10:37:14;18.60;1.00
20284;DHT22;10301;50.832;4.080;2023-06-01T10:39:40;18.70;1.00
20284;DHT22;10301;50.832;4.080;2023-06-01T10:47:04;19.00;1.00
20284;DHT22;10301;50.832;4.080;2023-06-01T10:52:31;19.10;1.00
20284;DHT22;10301;50.832;4.080;2023-06-01T10:57:42;19.50;99.90
20284;DHT22;10301;50.832;4.080;2023-06-01T11:00:21;19.30;1.00
20284;DHT22;10301;50.832;4.080;2023-06-01T11:02:57;19.50;99.90
20284;DHT22;10301;50.832;4.080;2023-06-01T11:05:45;19.60;1.00
20284;DHT22;10301;50.832;4.080;2023-06-01T11:13:34;19.50;1.00
20284;DHT22;10301;50.832;4.080;2023-06-01T11:18:56;19.70;1.00
20284;DHT22;10301;50.832;4.080;2023-06-01T11:21:34;19.60;1.00
20284;DHT22;10301;50.832;4.080;2023-06-01T11:24:04;19.90;99.90
20284;DHT22;10301;50.832;4.080;2023-06-01T11:26:36;19.80;99.90
20284;DHT22;10301;50.832;4.080;2023-06-01T11:29:04;20.00;99.90
20284;DHT22;10301;50.832;4.080;2023-06-01T11:31:37;19.80;1.00
20284;DHT22;10301;50.832;4.080;2023-06-01T11:34:04;19.90;1.00
20284;DHT22;10301;50.832;4.080;2023-06-01T11:36:30;19.90;99.90
20284;DHT22;10301;50.832;4.080;2023-06-01T11:39:02;20.30;1.00
20284;DHT22;10301;50.832;4.080;2023-06-01T11:41:28;20.20;99.90
20284;DHT22;10301;50.832;4.080;2023-06-01T11:43:55;20.30;99.90
20284;DHT22;10301;50.832;4.080;2023-06-01T11:46:21;20.50;1.00
20284;DHT22;10301;50.832;4.080;2023-06-01T11:49:04;20.60;99.90
20284;DHT22;10301;50.832;4.080;2023-06-01T11:51:37;20.70;1.00
20284;DHT22;10301;50.832;4.080;2023-06-01T11:54:04;21.10;99.90
20284;DHT22;10301;50.832;4.080;2023-06-01T11:56:31;20.70;1.00
20284;DHT22;10301;50.832;4.080;2023-06-01T11:58:58;20.40;54.10
20284;DHT22;10301;50.832;4.080;2023-06-01T12:01:25;20.20;99.90
20284;DHT22;10301;50.832;4.080;2023-06-01T12:03:51;20.30;1.00
20284;DHT22;10301;50.832;4.080;2023-06-01T12:06:24;20.50;1.00
20284;DHT22;10301;50.832;4.080;2023-06-01T12:08:57;20.80;1.00
20284;DHT22;10301;50.832;4.080;2023-06-01T12:11:24;21.00;99.90
20284;DHT22;10301;50.832;4.080;2023-06-01T12:13:56;20.80;1.00
20284;DHT22;10301;50.832;4.080;2023-06-01T12:16:23;20.90;1.00
20284;DHT22;10301;50.832;4.080;2023-06-01T12:18:51;21.30;99.90
20284;DHT22;10301;50.832;4.080;2023-06-01T12:21:17;21.00;99.90
20284;DHT22;10301;50.832;4.080;2023-06-01T12:23:49;21.40;99.90
20284;DHT22;10301;50.832;4.080;2023-06-01T12:26:18;21.40;99.90
20284;DHT22;10301;50.832;4.080;2023-06-01T12:28:52;21.50;99.90
20284;DHT22;10301;50.832;4.080;2023-06-01T12:31:22;21.10;99.90
20284;DHT22;10301;50.832;4.080;2023-06-01T12:33:48;21.40;99.90
20284;DHT22;10301;50.832;4.080;2023-06-01T12:36:33;21.00;1.00
20284;DHT22;10301;50.832;4.080;2023-06-01T12:39:00;21.20;99.90
20284;DHT22;10301;50.832;4.080;2023-06-01T12:41:27;21.40;1.00
20284;DHT22;10301;50.832;4.080;2023-06-01T12:43:55;21.30;1.00
20284;DHT22;10301;50.832;4.080;2023-06-01T12:46:24;21.60;1.00
20284;DHT22;10301;50.832;4.080;2023-06-01T12:48:53;21.70;99.90
20284;DHT22;10301;50.832;4.080;2023-06-01T12:51:20;21.60;1.00
20284;DHT22;10301;50.832;4.080;2023-06-01T12:53:46;21.80;1.00
20284;DHT22;10301;50.832;4.080;2023-06-01T12:56:13;22.10;1.00
20284;DHT22;10301;50.832;4.080;2023-06-01T12:58:39;22.10;1.00
20284;DHT22;10301;50.832;4.080;2023-06-01T13:01:05;21.90;1.00
20284;DHT22;10301;50.832;4.080;2023-06-01T13:03:32;21.80;1.00
20284;DHT22;10301;50.832;4.080;2023-06-01T13:05:58;22.00;1.00
20284;DHT22;10301;50.832;4.080;2023-06-01T13:08:23;21.60;1.00
20284;DHT22;10301;50.832;4.080;2023-06-01T13:10:49;22.00;1.00
20284;DHT22;10301;50.832;4.080;2023-06-01T13:13:15;22.00;1.00
20284;DHT22;10301;50.832;4.080;2023-06-01T13:15:42;22.30;1.00
20284;DHT22;10301;50.832;4.080;2023-06-01T13:18:08;22.10;1.00
20284;DHT22;10301;50.832;4.080;2023-06-01T13:20:35;21.90;1.00
20284;DHT22;10301;50.832;4.080;2023-06-01T13:23:01;22.00;1.00
20284;DHT22;10301;50.832;4.080;2023-06-01T13:25:27;22.20;1.00
20284;DHT22;10301;50.832;4.080;2023-06-01T13:27:53;21.80;1.00
20284;DHT22;10301;50.832;4.080;2023-06-01T13:30:19;21.80;1.00
20284;DHT22;10301;50.832;4.080;2023-06-01T13:32:45;21.90;1.00
20284;DHT22;10301;50.832;4.080;2023-06-01T13:35:11;22.10;1.00
20284;DHT22;10301;50.832;4.080;2023-06-01T13:37:37;22.00;1.00
20284;DHT22;10301;50.832;4.080;2023-06-01T13:40:03;22.20;1.00
20284;DHT22;10301;50.832;4.080;2023-06-01T13:42:31;22.40;1.00
20284;DHT22;10301;50.832;4.080;2023-06-01T13:45:00;22.50;1.00
20284;DHT22;10301;50.832;4.080;2023-06-01T13:47:26;22.50;1.00
20284;DHT22;10301;50.832;4.080;2023-06-01T13:49:52;22.60;1.00
20284;DHT22;10301;50.832;4.080;2023-06-01T13:52:18;22.60;1.00
20284;DHT22;10301;50.832;4.080;2023-06-01T13:54:43;22.50;1.00
20284;DHT22;10301;50.832;4.080;2023-06-01T13:57:10;22.30;1.00
20284;DHT22;10301;50.832;4.080;2023-06-01T13:59:36;21.90;38.70
20284;DHT22;10301;50.832;4.080;2023-06-01T14:02:03;22.20;1.00
20284;DHT22;10301;50.832;4.080;2023-06-01T14:04:29;22.40;57.60
20284;DHT22;10301;50.832;4.080;2023-06-01T14:06:55;22.20;1.00
20284;DHT22;10301;50.832;4.080;2023-06-01T14:09:22;22.10;91.60
20284;DHT22;10301;50.832;4.080;2023-06-01T14:11:49;22.50;1.00
20284;DHT22;10301;50.832;4.080;2023-06-01T14:14:15;22.80;1.00
20284;DHT22;10301;50.832;4.080;2023-06-01T14:16:41;22.60;1.00
20284;DHT22;10301;50.832;4.080;2023-06-01T14:19:07;22.70;1.00
20284;DHT22;10301;50.832;4.080;2023-06-01T14:21:32;22.70;1.00
20284;DHT22;10301;50.832;4.080;2023-06-01T14:24:00;22.80;1.00
20284;DHT22;10301;50.832;4.080;2023-06-01T14:26:26;22.60;1.00
20284;DHT22;10301;50.832;4.080;2023-06-01T14:28:53;22.80;1.00
20284;DHT22;10301;50.832;4.080;2023-06-01T14:31:19;22.70;1.00
20284;DHT22;10301;50.832;4.080;2023-06-01T14:33:48;22.70;1.00
20284;DHT22;10301;50.832;4.080;2023-06-01T14:36:14;22.10;1.00
20284;DHT22;10301;50.832;4.080;2023-06-01T14:38:40;22.10;1.00
20284;DHT22;10301;50.832;4.080;2023-06-01T14:41:06;22.20;1.00
20284;DHT22;10301;50.832;4.080;2023-06-01T14:43:32;22.40;1.00
20284;DHT22;10301;50.832;4.080;2023-06-01T14:45:58;22.20;1.00
20284;DHT22;10301;50.832;4.080;2023-06-01T14:48:24;22.00;1.00
20284;DHT22;10301;50.832;4.080;2023-06-01T14:50:50;21.90;99.90
20284;DHT22;10301;50.832;4.080;2023-06-01T14:53:16;22.10;1.00
20284;DHT22;10301;50.832;4.080;2023-06-01T14:55:42;22.20;1.00
20284;DHT22;10301;50.832;4.080;2023-06-01T14:58:08;22.30;1.00
20284;DHT22;10301;50.832;4.080;2023-06-01T15:00:35;22.60;1.00
20284;DHT22;10301;50.832;4.080;2023-06-01T15:03:01;22.50;1.00
20284;DHT22;10301;50.832;4.080;2023-06-01T15:05:27;22.40;1.00
20284;DHT22;10301;50.832;4.080;2023-06-01T15:07:53;22.50;1.00
20284;DHT22;10301;50.832;4.080;2023-06-01T15:10:18;22.40;1.00
20284;DHT22;10301;50.832;4.080;2023-06-01T15:12:44;22.10;1.00
20284;DHT22;10301;50.832;4.080;2023-06-01T15:15:10;22.30;1.00
20284;DHT22;10301;50.832;4.080;2023-06-01T15:17:35;22.20;1.00
20284;DHT22;10301;50.832;4.080;2023-06-01T15:20:01;22.60;1.00
20284;DHT22;10301;50.832;4.080;2023-06-01T15:22:27;22.50;1.00
20284;DHT22;10301;50.832;4.080;2023-06-01T15:24:53;22.10;99.90
20284;DHT22;10301;50.832;4.080;2023-06-01T15:27:18;22.00;1.00
20284;DHT22;10301;50.832;4.080;2023-06-01T15:29:45;22.20;1.00
20284;DHT22;10301;50.832;4.080;2023-06-01T15:32:11;22.60;99.90
20284;DHT22;10301;50.832;4.080;2023-06-01T15:34:37;22.40;99.90
20284;DHT22;10301;50.832;4.080;2023-06-01T15:37:08;22.30;99.90
20284;DHT22;10301;50.832;4.080;2023-06-01T15:39:34;22.20;1.00
20284;DHT22;10301;50.832;4.080;2023-06-01T15:42:03;22.20;1.00
20284;DHT22;10301;50.832;4.080;2023-06-01T15:44:29;22.50;1.00
20284;DHT22;10301;50.832;4.080;2023-06-01T15:46:54;22.20;99.90
20284;DHT22;10301;50.832;4.080;2023-06-01T15:49:20;22.20;99.90
20284;DHT22;10301;50.832;4.080;2023-06-01T15:51:46;22.20;99.90
20284;DHT22;10301;50.832;4.080;2023-06-01T15:54:11;22.50;1.00
20284;DHT22;10301;50.832;4.080;2023-06-01T15:56:37;22.30;1.00
20284;DHT22;10301;50.832;4.080;2023-06-01T15:59:03;22.20;1.00
20284;DHT22;10301;50.832;4.080;2023-06-01T16:01:28;22.00;99.90
20284;DHT22;10301;50.832;4.080;2023-06-01T16:03:54;22.10;99.90
20284;DHT22;10301;50.832;4.080;2023-06-01T16:06:20;22.10;1.00
20284;DHT22;10301;50.832;4.080;2023-06-01T16:08:45;22.00;1.00
20284;DHT22;10301;50.832;4.080;2023-06-01T16:11:11;22.00;1.00
20284;DHT22;10301;50.832;4.080;2023-06-01T16:13:37;21.90;99.90